sensor_id;sensor_type;location;lat;lon;timestamp;temperature;humidity
7240;DHT22;3661;53.288;10.458;2022-11-04T00:01:31;9.70;99.90
7240;DHT22;3661;53.288;10.458;2022-11-04T00:04:03;9.70;99.90
7240;DHT22;3661;53.288;10.458;2022-11-04T00:06:36;9.70;99.90
7240;DHT22;3661;53.288;10.458;2022-11-04T00:09:10;9.70;99.90
7240;DHT22;3661;53.288;10.458;2022-11-04T00:11:42;9.70;99.90
7240;DHT22;3661;53.288;10.458;2022-11-04T00:14:32;9.70;99.90
7240;DHT22;3661;53.288;10.458;2022-11-04T00:17:10;9.70;99.90
7240;DHT22;3661;53.288;10.458;2022-11-04T00:19:52;9.70;99.90
7240;DHT22;3661;53.288;10.458;2022-11-04T00:22:46;9.70;99.90
7240;DHT22;3661;53.288;10.458;2022-11-04T00:25:36;9.70;99.90
7240;DHT22;3661;53.288;10.458;2022-11-04T00:28:25;9.70;99.90
7240;DHT22;3661;53.288;10.458;2022-11-04T00:31:15;9.70;99.90
7240;DHT22;3661;53.288;10.458;2022-11-04T00:34:05;9.70;99.90
7240;DHT22;3661;53.288;10.458;2022-11-04T00:36:38;9.70;99.90
7240;DHT22;3661;53.288;10.458;2022-11-04T00:39:10;9.70;99.90
7240;DHT22;3661;53.288;10.458;2022-11-04T00:41:42;9.70;99.90
7240;DHT22;3661;53.288;10.458;2022-11-04T00:44:14;9.80;99.90
7240;DHT22;3661;53.288;10.458;2022-11-04T00:46:46;9.70;99.90
7240;DHT22;3661;53.288;10.458;2022-11-04T00:49:20;9.70;99.90
7240;DHT22;3661;53.288;10.458;2022-11-04T00:51:52;9.70;99.90
7240;DHT22;3661;53.288;10.458;2022-11-04T00:54:24;9.70;99.90
7240;DHT22;3661;53.288;10.458;2022-11-04T00:56:56;9.70;99.90
7240;DHT22;3661;53.288;10.458;2022-11-04T00:59:28;9.70;99.90
7240;DHT22;3661;53.288;10.458;2022-11-04T01:02:00;9.70;99.90
7240;DHT22;3661;53.288;10.458;2022-11-04T01:04:38;9.70;99.90
7240;DHT22;3661;53.288;10.458;2022-11-04T01:07:10;9.70;99.90
7240;DHT22;3661;53.288;10.458;2022-11-04T01:09:42;9.70;99.90
7240;DHT22;3661;53.288;10.458;2022-11-04T01:12:15;9.70;99.90
7240;DHT22;3661;53.288;10.458;2022-11-04T01:14:47;9.70;99.90
7240;DHT22;3661;53.288;10.458;2022-11-04T01:17:19;9.80;99.90
7240;DHT22;3661;53.288;10.458;2022-11-04T01:19:53;9.70;99.90
7240;DHT22;3661;53.288;10.458;2022-11-04T01:22:25;9.70;99.90
7240;DHT22;3661;53.288;10.458;2022-11-04T01:24:57;9.70;99.90
7240;DHT22;3661;53.288;10.458;2022-11-04T01:27:29;9.70;99.90
7240;DHT22;3661;53.288;10.458;2022-11-04T01:30:01;9.70;99.90
7240;DHT22;3661;53.288;10.458;2022-11-04T01:32:33;9.70;99.90
7240;DHT22;3661;53.288;10.458;2022-11-04T01:35:08;9.70;99.90
7240;DHT22;3661;53.288;10.458;2022-11-04T01:37:40;9.80;99.90
7240;DHT22;3661;53.288;10.458;2022-11-04T01:40:12;9.80;99.90
7240;DHT22;3661;53.288;10.458;2022-11-04T01:42:44;9.80;99.90
7240;DHT22;3661;53.288;10.458;2022-11-04T01:45:19;9.80;99.90
7240;DHT22;3661;53.288;10.458;2022-11-04T01:47:57;9.80;99.90
7240;DHT22;3661;53.288;10.458;2022-11-04T01:50:34;9.80;99.90
7240;DHT22;3661;53.288;10.458;2022-11-04T01:53:10;9.80;99.90
7240;DHT22;3661;53.288;10.458;2022-11-04T01:55:48;9.80;99.90
7240;DHT22;3661;53.288;10.458;2022-11-04T01:58:26;9.80;99.90
7240;DHT22;3661;53.288;10.458;2022-11-04T02:01:00;9.80;99.90
7240;DHT22;3661;53.288;10.458;2022-11-04T02:03:35;9.90;99.90
7240;DHT22;3661;53.288;10.458;2022-11-04T02:06:13;9.80;99.90
7240;DHT22;3661;53.288;10.458;2022-11-04T02:08:47;9.90;99.90
7240;DHT22;3661;53.288;10.458;2022-11-04T02:11:19;9.90;99.90
7240;DHT22;3661;53.288;10.458;2022-11-04T02:14:11;9.90;99.90
7240;DHT22;3661;53.288;10.458;2022-11-04T02:16:44;9.90;99.90
7240;DHT22;3661;53.288;10.458;2022-11-04T02:19:39;9.90;99.90
7240;DHT22;3661;53.288;10.458;2022-11-04T02:31:52;9.90;99.90
7240;DHT22;3661;53.288;10.458;2022-11-04T02:34:33;9.90;99.90
7240;DHT22;3661;53.288;10.458;2022-11-04T02:37:15;9.90;99.90
7240;DHT22;3661;53.288;10.458;2022-11-04T02:39:52;9.90;99.90
7240;DHT22;3661;53.288;10.458;2022-11-04T02:42:29;9.90;99.90
7240;DHT22;3661;53.288;10.458;2022-11-04T02:45:15;9.90;99.90
7240;DHT22;3661;53.288;10.458;2022-11-04T02:48:04;9.90;99.90
7240;DHT22;3661;53.288;10.458;2022-11-04T02:50:46;9.90;99.90
7240;DHT22;3661;53.288;10.458;2022-11-04T02:53:24;9.90;99.90
7240;DHT22;3661;53.288;10.458;2022-11-04T02:55:58;9.90;99.90
7240;DHT22;3661;53.288;10.458;2022-11-04T02:58:35;9.90;99.90
7240;DHT22;3661;53.288;10.458;2022-11-04T03:01:13;9.90;99.90
7240;DHT22;3661;53.288;10.458;2022-11-04T03:03:58;9.90;99.90
7240;DHT22;3661;53.288;10.458;2022-11-04T03:06:32;9.90;99.90
7240;DHT22;3661;53.288;10.458;2022-11-04T03:09:07;9.90;99.90
7240;DHT22;3661;53.288;10.458;2022-11-04T03:11:45;9.90;99.90
7240;DHT22;3661;53.288;10.458;2022-11-04T03:14:25;9.90;99.90
7240;DHT22;3661;53.288;10.458;2022-11-04T03:17:01;9.90;99.90
7240;DHT22;3661;53.288;10.458;2022-11-04T03:19:41;9.90;99.90
7240;DHT22;3661;53.288;10.458;2022-11-04T03:22:17;9.90;99.90
7240;DHT22;3661;53.288;10.458;2022-11-04T03:24:50;9.90;99.90
7240;DHT22;3661;53.288;10.458;2022-11-04T03:27:26;9.90;99.90
7240;DHT22;3661;53.288;10.458;2022-11-04T03:30:04;9.80;99.90
7240;DHT22;3661;53.288;10.458;2022-11-04T03:32:44;9.80;99.90
7240;DHT22;3661;53.288;10.458;2022-11-04T03:35:20;9.80;99.90
7240;DHT22;3661;53.288;10.458;2022-11-04T03:37:52;9.80;99.90
7240;DHT22;3661;53.288;10.458;2022-11-04T03:40:25;9.80;99.90
7240;DHT22;3661;53.288;10.458;2022-11-04T03:43:06;9.80;99.90
7240;DHT22;3661;53.288;10.458;2022-11-04T03:45:40;9.80;99.90
7240;DHT22;3661;53.288;10.458;2022-11-04T03:48:13;9.80;99.90
7240;DHT22;3661;53.288;10.458;2022-11-04T03:50:47;9.80;99.90
7240;DHT22;3661;53.288;10.458;2022-11-04T03:53:22;9.80;99.90
7240;DHT22;3661;53.288;10.458;2022-11-04T03:56:16;9.80;99.90
7240;DHT22;3661;53.288;10.458;2022-11-04T03:59:02;9.80;99.90
7240;DHT22;3661;53.288;10.458;2022-11-04T04:01:45;9.80;99.90
7240;DHT22;3661;53.288;10.458;2022-11-04T04:04:22;9.80;99.90
7240;DHT22;3661;53.288;10.458;2022-11-04T04:07:03;9.80;99.90
7240;DHT22;3661;53.288;10.458;2022-11-04T04:09:38;9.80;99.90
7240;DHT22;3661;53.288;10.458;2022-11-04T04:12:18;9.80;99.90
7240;DHT22;3661;53.288;10.458;2022-11-04T04:14:52;9.80;99.90
7240;DHT22;3661;53.288;10.458;2022-11-04T04:17:30;9.80;99.90
7240;DHT22;3661;53.288;10.458;2022-11-04T04:20:06;9.80;99.90
7240;DHT22;3661;53.288;10.458;2022-11-04T04:22:46;9.80;99.90
7240;DHT22;3661;53.288;10.458;2022-11-04T04:25:20;9.80;99.90
7240;DHT22;3661;53.288;10.458;2022-11-04T04:28:13;9.80;99.90
7240;DHT22;3661;53.288;10.458;2022-11-04T04:30:46;9.80;99.90
7240;DHT22;3661;53.288;10.458;2022-11-04T04:33:19;9.80;99.90
7240;DHT22;3661;53.288;10.458;2022-11-04T04:35:54;9.80;99.90
7240;DHT22;3661;53.288;10.458;2022-11-04T04:38:30;9.80;99.90
7240;DHT22;3661;53.288;10.458;2022-11-04T04:41:35;9.80;99.90
7240;DHT22;3661;53.288;10.458;2022-11-04T04:44:26;9.80;99.90
7240;DHT22;3661;53.288;10.458;2022-11-04T04:47:18;9.80;99.90
7240;DHT22;3661;53.288;10.458;2022-11-04T04:49:52;9.80;99.90
7240;DHT22;3661;53.288;10.458;2022-11-04T04:52:26;9.80;99.90
7240;DHT22;3661;53.288;10.458;2022-11-04T04:55:00;9.80;99.90
7240;DHT22;3661;53.288;10.458;2022-11-04T04:57:32;9.80;99.90
7240;DHT22;3661;53.288;10.458;2022-11-04T05:00:07;9.80;99.90
7240;DHT22;3661;53.288;10.458;2022-11-04T05:02:40;9.80;99.90
7240;DHT22;3661;53.288;10.458;2022-11-04T05:05:12;9.80;99.90
7240;DHT22;3661;53.288;10.458;2022-11-04T05:07:44;9.80;99.90
7240;DHT22;3661;53.288;10.458;2022-11-04T05:10:18;9.80;99.90
7240;DHT22;3661;53.288;10.458;2022-11-04T05:12:50;9.80;99.90
7240;DHT22;3661;53.288;10.458;2022-11-04T05:15:39;9.80;99.90
7240;DHT22;3661;53.288;10.458;2022-11-04T05:18:11;9.80;99.90
7240;DHT22;3661;53.288;10.458;2022-11-04T05:20:44;9.80;99.90
7240;DHT22;3661;53.288;10.458;2022-11-04T05:23:16;9.80;99.90
7240;DHT22;3661;53.288;10.458;2022-11-04T05:25:49;9.80;99.90
7240;DHT22;3661;53.288;10.458;2022-11-04T05:28:21;9.80;99.90
7240;DHT22;3661;53.288;10.458;2022-11-04T05:30:53;9.80;99.90
7240;DHT22;3661;53.288;10.458;2022-11-04T05:33:25;9.80;99.90
7240;DHT22;3661;53.288;10.458;2022-11-04T05:36:05;9.80;99.90
7240;DHT22;3661;53.288;10.458;2022-11-04T05:38:37;9.80;99.90
7240;DHT22;3661;53.288;10.458;2022-11-04T05:41:11;9.80;99.90
7240;DHT22;3661;53.288;10.458;2022-11-04T05:43:56;9.80;99.90
7240;DHT22;3661;53.288;10.458;2022-11-04T05:46:29;9.80;99.90
7240;DHT22;3661;53.288;10.458;2022-11-04T05:49:01;9.80;99.90
7240;DHT22;3661;53.288;10.458;2022-11-04T05:51:33;9.80;99.90
7240;DHT22;3661;53.288;10.458;2022-11-04T05:54:05;9.80;99.90
7240;DHT22;3661;53.288;10.458;2022-11-04T05:56:40;9.80;99.90
7240;DHT22;3661;53.288;10.458;2022-11-04T05:59:12;9.80;99.90
7240;DHT22;3661;53.288;10.458;2022-11-04T06:01:44;9.80;99.90
7240;DHT22;3661;53.288;10.458;2022-11-04T06:04:18;9.80;99.90
7240;DHT22;3661;53.288;10.458;2022-11-04T06:06:50;9.80;99.90
7240;DHT22;3661;53.288;10.458;2022-11-04T06:09:22;9.80;99.90
7240;DHT22;3661;53.288;10.458;2022-11-04T06:12:11;9.80;99.90
7240;DHT22;3661;53.288;10.458;2022-11-04T06:14:44;9.80;99.90
7240;DHT22;3661;53.288;10.458;2022-11-04T06:17:17;9.70;99.90
7240;DHT22;3661;53.288;10.458;2022-11-04T06:19:49;9.80;99.90
7240;DHT22;3661;53.288;10.458;2022-11-04T06:22:22;9.70;99.90
7240;DHT22;3661;53.288;10.458;2022-11-04T06:24:54;9.80;99.90
7240;DHT22;3661;53.288;10.458;2022-11-04T06:27:27;9.80;99.90
7240;DHT22;3661;53.288;10.458;2022-11-04T06:29:59;9.80;99.90
7240;DHT22;3661;53.288;10.458;2022-11-04T06:32:32;9.80;99.90
7240;DHT22;3661;53.288;10.458;2022-11-04T06:35:05;9.80;99.90
7240;DHT22;3661;53.288;10.458;2022-11-04T06:37:38;9.70;99.90
7240;DHT22;3661;53.288;10.458;2022-11-04T06:40:10;9.70;99.90
7240;DHT22;3661;53.288;10.458;2022-11-04T06:42:44;9.70;99.90
7240;DHT22;3661;53.288;10.458;2022-11-04T06:45:16;9.70;99.90
7240;DHT22;3661;53.288;10.458;2022-11-04T06:47:48;9.70;99.90
7240;DHT22;3661;53.288;10.458;2022-11-04T06:50:20;9.70;99.90
7240;DHT22;3661;53.288;10.458;2022-11-04T06:52:52;9.70;99.90
7240;DHT22;3661;53.288;10.458;2022-11-04T06:55:24;9.70;99.90
7240;DHT22;3661;53.288;10.458;2022-11-04T06:57:58;9.70;99.90
7240;DHT22;3661;53.288;10.458;2022-11-04T07:00:30;9.70;99.90
7240;DHT22;3661;53.288;10.458;2022-11-04T07:03:02;9.70;99.90
7240;DHT22;3661;53.288;10.458;2022-11-04T07:05:34;9.70;99.90
7240;DHT22;3661;53.288;10.458;2022-11-04T07:08:06;9.70;99.90
7240;DHT22;3661;53.288;10.458;2022-11-04T07:10:38;9.70;99.90
7240;DHT22;3661;53.288;10.458;2022-11-04T07:13:12;9.70;99.90
7240;DHT22;3661;53.288;10.458;2022-11-04T07:15:46;9.70;99.90
7240;DHT22;3661;53.288;10.458;2022-11-04T07:18:18;9.70;99.90
7240;DHT22;3661;53.288;10.458;2022-11-04T07:20:50;9.70;99.90
7240;DHT22;3661;53.288;10.458;2022-11-04T07:23:28;9.70;99.90
7240;DHT22;3661;53.288;10.458;2022-11-04T07:26:00;9.70;99.90
7240;DHT22;3661;53.288;10.458;2022-11-04T07:28:34;9.70;99.90
7240;DHT22;3661;53.288;10.458;2022-11-04T07:31:08;9.70;99.90
7240;DHT22;3661;53.288;10.458;2022-11-04T07:33:41;9.70;99.90
7240;DHT22;3661;53.288;10.458;2022-11-04T07:36:13;9.70;99.90
7240;DHT22;3661;53.288;10.458;2022-11-04T07:38:46;9.70;99.90
7240;DHT22;3661;53.288;10.458;2022-11-04T07:41:19;9.70;99.90
7240;DHT22;3661;53.288;10.458;2022-11-04T07:43:53;9.70;99.90
7240;DHT22;3661;53.288;10.458;2022-11-04T07:46:26;9.80;99.90
7240;DHT22;3661;53.288;10.458;2022-11-04T07:48:58;9.80;99.90
7240;DHT22;3661;53.288;10.458;2022-11-04T07:51:30;9.80;99.90
7240;DHT22;3661;53.288;10.458;2022-11-04T07:54:03;9.80;99.90
7240;DHT22;3661;53.288;10.458;2022-11-04T07:56:35;9.80;99.90
7240;DHT22;3661;53.288;10.458;2022-11-04T07:59:08;9.80;99.90
7240;DHT22;3661;53.288;10.458;2022-11-04T08:01:40;9.80;99.90
7240;DHT22;3661;53.288;10.458;2022-11-04T08:04:12;9.90;99.90
7240;DHT22;3661;53.288;10.458;2022-11-04T08:06:44;9.90;99.90
7240;DHT22;3661;53.288;10.458;2022-11-04T08:09:16;9.90;99.90
7240;DHT22;3661;53.288;10.458;2022-11-04T08:11:48;9.90;99.90
7240;DHT22;3661;53.288;10.458;2022-11-04T08:14:22;9.90;99.90
7240;DHT22;3661;53.288;10.458;2022-11-04T08:16:54;9.90;99.90
7240;DHT22;3661;53.288;10.458;2022-11-04T08:19:26;9.90;99.90
7240;DHT22;3661;53.288;10.458;2022-11-04T08:21:58;9.90;99.90
7240;DHT22;3661;53.288;10.458;2022-11-04T08:24:30;9.90;99.90
7240;DHT22;3661;53.288;10.458;2022-11-04T08:27:04;9.90;99.90
7240;DHT22;3661;53.288;10.458;2022-11-04T08:29:38;9.90;99.90
7240;DHT22;3661;53.288;10.458;2022-11-04T08:32:10;9.90;99.90
7240;DHT22;3661;53.288;10.458;2022-11-04T08:34:42;10.00;99.90
7240;DHT22;3661;53.288;10.458;2022-11-04T08:37:15;10.00;99.90
7240;DHT22;3661;53.288;10.458;2022-11-04T08:39:47;10.00;99.90
7240;DHT22;3661;53.288;10.458;2022-11-04T08:42:19;10.00;99.90
7240;DHT22;3661;53.288;10.458;2022-11-04T08:44:53;10.00;99.90
7240;DHT22;3661;53.288;10.458;2022-11-04T08:47:25;10.00;99.90
7240;DHT22;3661;53.288;10.458;2022-11-04T08:49:57;10.00;99.90
7240;DHT22;3661;53.288;10.458;2022-11-04T08:52:29;10.00;99.90
7240;DHT22;3661;53.288;10.458;2022-11-04T08:55:01;10.10;99.90
7240;DHT22;3661;53.288;10.458;2022-11-04T08:57:33;10.10;99.90
7240;DHT22;3661;53.288;10.458;2022-11-04T09:00:08;10.10;99.90
7240;DHT22;3661;53.288;10.458;2022-11-04T09:02:40;10.20;99.90
7240;DHT22;3661;53.288;10.458;2022-11-04T09:05:13;10.20;99.90
7240;DHT22;3661;53.288;10.458;2022-11-04T09:07:45;10.20;99.90
7240;DHT22;3661;53.288;10.458;2022-11-04T09:10:18;10.20;99.90
7240;DHT22;3661;53.288;10.458;2022-11-04T09:13:07;10.20;99.90
7240;DHT22;3661;53.288;10.458;2022-11-04T09:15:41;10.30;99.90
7240;DHT22;3661;53.288;10.458;2022-11-04T09:18:13;10.30;99.90
7240;DHT22;3661;53.288;10.458;2022-11-04T09:20:45;10.30;99.90
7240;DHT22;3661;53.288;10.458;2022-11-04T09:23:17;10.30;99.90
7240;DHT22;3661;53.288;10.458;2022-11-04T09:31:26;10.40;99.90
7240;DHT22;3661;53.288;10.458;2022-11-04T09:40:18;10.50;99.90
7240;DHT22;3661;53.288;10.458;2022-11-04T09:43:43;10.50;99.90
7240;DHT22;3661;53.288;10.458;2022-11-04T09:46:32;10.50;99.90
7240;DHT22;3661;53.288;10.458;2022-11-04T09:49:09;10.60;99.90
7240;DHT22;3661;53.288;10.458;2022-11-04T09:52:14;10.60;99.90
7240;DHT22;3661;53.288;10.458;2022-11-04T09:55:06;10.70;99.90
7240;DHT22;3661;53.288;10.458;2022-11-04T09:57:53;10.70;99.90
7240;DHT22;3661;53.288;10.458;2022-11-04T10:00:32;10.80;99.90
7240;DHT22;3661;53.288;10.458;2022-11-04T10:03:20;10.80;99.90
7240;DHT22;3661;53.288;10.458;2022-11-04T10:06:08;10.90;99.90
7240;DHT22;3661;53.288;10.458;2022-11-04T10:09:09;11.00;99.90
7240;DHT22;3661;53.288;10.458;2022-11-04T10:12:16;11.00;99.90
7240;DHT22;3661;53.288;10.458;2022-11-04T10:15:12;11.10;99.90
7240;DHT22;3661;53.288;10.458;2022-11-04T10:20:42;11.10;99.90
7240;DHT22;3661;53.288;10.458;2022-11-04T10:23:43;11.20;99.90
7240;DHT22;3661;53.288;10.458;2022-11-04T10:26:17;11.20;99.90
7240;DHT22;3661;53.288;10.458;2022-11-04T10:28:54;11.30;99.90
7240;DHT22;3661;53.288;10.458;2022-11-04T10:31:37;11.30;99.90
7240;DHT22;3661;53.288;10.458;2022-11-04T10:34:17;11.30;99.90
7240;DHT22;3661;53.288;10.458;2022-11-04T10:36:58;11.40;99.90
7240;DHT22;3661;53.288;10.458;2022-11-04T10:39:33;11.50;99.90
7240;DHT22;3661;53.288;10.458;2022-11-04T10:42:07;11.50;99.90
7240;DHT22;3661;53.288;10.458;2022-11-04T10:44:40;11.60;99.90
7240;DHT22;3661;53.288;10.458;2022-11-04T10:47:21;11.60;99.90
7240;DHT22;3661;53.288;10.458;2022-11-04T10:50:14;11.60;99.90
7240;DHT22;3661;53.288;10.458;2022-11-04T10:52:54;11.70;99.90
7240;DHT22;3661;53.288;10.458;2022-11-04T10:55:32;11.70;99.90
7240;DHT22;3661;53.288;10.458;2022-11-04T10:58:13;11.70;99.90
7240;DHT22;3661;53.288;10.458;2022-11-04T11:00:46;11.80;99.90
7240;DHT22;3661;53.288;10.458;2022-11-04T11:03:25;11.80;99.90
7240;DHT22;3661;53.288;10.458;2022-11-04T11:06:13;11.80;99.90
7240;DHT22;3661;53.288;10.458;2022-11-04T11:08:48;11.90;99.90
7240;DHT22;3661;53.288;10.458;2022-11-04T11:11:38;11.90;99.90
7240;DHT22;3661;53.288;10.458;2022-11-04T11:14:19;12.00;99.90
7240;DHT22;3661;53.288;10.458;2022-11-04T11:16:51;12.00;99.90
7240;DHT22;3661;53.288;10.458;2022-11-04T11:19:24;12.00;99.90
7240;DHT22;3661;53.288;10.458;2022-11-04T11:21:56;12.00;99.90
7240;DHT22;3661;53.288;10.458;2022-11-04T11:24:30;12.10;99.90
7240;DHT22;3661;53.288;10.458;2022-11-04T11:27:10;12.10;99.90
7240;DHT22;3661;53.288;10.458;2022-11-04T11:29:45;12.20;99.90
7240;DHT22;3661;53.288;10.458;2022-11-04T11:32:29;12.20;99.90
7240;DHT22;3661;53.288;10.458;2022-11-04T11:35:02;12.30;99.90
7240;DHT22;3661;53.288;10.458;2022-11-04T11:37:35;12.30;99.90
7240;DHT22;3661;53.288;10.458;2022-11-04T11:40:25;12.40;99.90
7240;DHT22;3661;53.288;10.458;2022-11-04T11:42:58;12.40;99.90
7240;DHT22;3661;53.288;10.458;2022-11-04T11:45:31;12.40;99.90
7240;DHT22;3661;53.288;10.458;2022-11-04T11:48:28;12.40;99.90
7240;DHT22;3661;53.288;10.458;2022-11-04T11:51:00;12.40;99.90
7240;DHT22;3661;53.288;10.458;2022-11-04T11:53:33;12.40;99.90
7240;DHT22;3661;53.288;10.458;2022-11-04T11:56:16;12.40;99.90
7240;DHT22;3661;53.288;10.458;2022-11-04T11:58:53;12.40;99.90
7240;DHT22;3661;53.288;10.458;2022-11-04T12:01:39;12.40;99.90
7240;DHT22;3661;53.288;10.458;2022-11-04T12:04:15;12.50;99.90
7240;DHT22;3661;53.288;10.458;2022-11-04T12:06:55;12.50;99.90
7240;DHT22;3661;53.288;10.458;2022-11-04T12:09:36;12.50;99.90
7240;DHT22;3661;53.288;10.458;2022-11-04T12:12:24;12.50;99.90
7240;DHT22;3661;53.288;10.458;2022-11-04T12:15:12;12.50;99.90
7240;DHT22;3661;53.288;10.458;2022-11-04T12:17:59;12.50;99.90
7240;DHT22;3661;53.288;10.458;2022-11-04T12:20:43;12.50;99.90
7240;DHT22;3661;53.288;10.458;2022-11-04T12:23:23;12.60;99.90
7240;DHT22;3661;53.288;10.458;2022-11-04T12:26:09;12.60;99.90
7240;DHT22;3661;53.288;10.458;2022-11-04T12:28:54;12.60;99.90
7240;DHT22;3661;53.288;10.458;2022-11-04T12:31:40;12.70;99.90
7240;DHT22;3661;53.288;10.458;2022-11-04T12:34:25;12.70;99.90
7240;DHT22;3661;53.288;10.458;2022-11-04T12:37:10;12.70;99.90
7240;DHT22;3661;53.288;10.458;2022-11-04T12:40:02;12.70;99.90
7240;DHT22;3661;53.288;10.458;2022-11-04T12:42:47;12.70;99.90
7240;DHT22;3661;53.288;10.458;2022-11-04T12:45:31;12.70;99.90
7240;DHT22;3661;53.288;10.458;2022-11-04T12:48:15;12.80;99.90
7240;DHT22;3661;53.288;10.458;2022-11-04T12:51:01;12.80;99.90
7240;DHT22;3661;53.288;10.458;2022-11-04T12:53:53;12.80;99.90
7240;DHT22;3661;53.288;10.458;2022-11-04T12:56:31;12.80;99.90
7240;DHT22;3661;53.288;10.458;2022-11-04T12:59:28;12.80;99.90
7240;DHT22;3661;53.288;10.458;2022-11-04T13:02:13;12.80;99.90
7240;DHT22;3661;53.288;10.458;2022-11-04T13:04:51;12.80;99.90
7240;DHT22;3661;53.288;10.458;2022-11-04T13:07:31;12.80;99.90
7240;DHT22;3661;53.288;10.458;2022-11-04T13:10:07;12.80;99.90
7240;DHT22;3661;53.288;10.458;2022-11-04T13:12:43;12.90;99.90
7240;DHT22;3661;53.288;10.458;2022-11-04T13:15:18;12.80;99.90
7240;DHT22;3661;53.288;10.458;2022-11-04T13:17:56;12.80;99.90
7240;DHT22;3661;53.288;10.458;2022-11-04T13:20:32;12.80;99.90
7240;DHT22;3661;53.288;10.458;2022-11-04T13:23:11;12.80;99.90
7240;DHT22;3661;53.288;10.458;2022-11-04T13:25:46;12.80;99.90
7240;DHT22;3661;53.288;10.458;2022-11-04T13:28:20;12.80;99.90
7240;DHT22;3661;53.288;10.458;2022-11-04T13:31:02;12.80;99.90
7240;DHT22;3661;53.288;10.458;2022-11-04T13:33:42;12.80;99.90
7240;DHT22;3661;53.288;10.458;2022-11-04T13:36:27;12.80;99.90
7240;DHT22;3661;53.288;10.458;2022-11-04T13:39:07;12.80;99.90
7240;DHT22;3661;53.288;10.458;2022-11-04T13:44:48;12.90;99.90
7240;DHT22;3661;53.288;10.458;2022-11-04T13:47:23;12.90;99.90
7240;DHT22;3661;53.288;10.458;2022-11-04T13:49:57;12.90;99.90
7240;DHT22;3661;53.288;10.458;2022-11-04T13:52:32;12.90;99.90
7240;DHT22;3661;53.288;10.458;2022-11-04T13:55:16;12.90;99.90
7240;DHT22;3661;53.288;10.458;2022-11-04T13:57:53;12.80;99.90
7240;DHT22;3661;53.288;10.458;2022-11-04T14:00:27;12.80;99.90
7240;DHT22;3661;53.288;10.458;2022-11-04T14:03:00;12.80;99.90
7240;DHT22;3661;53.288;10.458;2022-11-04T14:06:04;12.80;99.90
7240;DHT22;3661;53.288;10.458;2022-11-04T14:12:17;12.70;99.90
7240;DHT22;3661;53.288;10.458;2022-11-04T14:15:03;12.60;99.90
7240;DHT22;3661;53.288;10.458;2022-11-04T14:18:02;12.60;99.90
7240;DHT22;3661;53.288;10.458;2022-11-04T14:20:35;12.60;99.90
7240;DHT22;3661;53.288;10.458;2022-11-04T14:23:20;12.50;99.90
7240;DHT22;3661;53.288;10.458;2022-11-04T14:25:58;12.50;99.90
7240;DHT22;3661;53.288;10.458;2022-11-04T14:28:32;12.40;99.90
7240;DHT22;3661;53.288;10.458;2022-11-04T14:31:06;12.40;99.90
7240;DHT22;3661;53.288;10.458;2022-11-04T14:33:49;12.40;99.90
7240;DHT22;3661;53.288;10.458;2022-11-04T14:36:29;12.30;99.90
7240;DHT22;3661;53.288;10.458;2022-11-04T14:39:20;12.30;99.90
7240;DHT22;3661;53.288;10.458;2022-11-04T14:41:56;12.30;99.90
7240;DHT22;3661;53.288;10.458;2022-11-04T14:44:34;12.30;99.90
7240;DHT22;3661;53.288;10.458;2022-11-04T14:47:16;12.30;99.90
7240;DHT22;3661;53.288;10.458;2022-11-04T14:49:50;12.20;99.90
7240;DHT22;3661;53.288;10.458;2022-11-04T14:52:26;12.20;99.90
7240;DHT22;3661;53.288;10.458;2022-11-04T14:55:04;12.20;99.90
7240;DHT22;3661;53.288;10.458;2022-11-04T14:57:39;12.20;99.90
7240;DHT22;3661;53.288;10.458;2022-11-04T15:03:15;12.10;99.90
7240;DHT22;3661;53.288;10.458;2022-11-04T15:05:50;12.10;99.90
7240;DHT22;3661;53.288;10.458;2022-11-04T15:08:32;12.10;99.90
7240;DHT22;3661;53.288;10.458;2022-11-04T15:11:10;12.10;99.90
7240;DHT22;3661;53.288;10.458;2022-11-04T15:13:45;12.00;99.90
7240;DHT22;3661;53.288;10.458;2022-11-04T15:16:19;12.00;99.90
7240;DHT22;3661;53.288;10.458;2022-11-04T15:18:54;12.00;99.90
7240;DHT22;3661;53.288;10.458;2022-11-04T15:21:27;12.00;99.90
7240;DHT22;3661;53.288;10.458;2022-11-04T15:23:59;12.00;99.90
7240;DHT22;3661;53.288;10.458;2022-11-04T15:26:33;12.00;99.90
7240;DHT22;3661;53.288;10.458;2022-11-04T15:29:08;12.00;99.90
7240;DHT22;3661;53.288;10.458;2022-11-04T15:31:52;11.90;99.90
7240;DHT22;3661;53.288;10.458;2022-11-04T15:34:25;11.90;99.90
7240;DHT22;3661;53.288;10.458;2022-11-04T15:36:59;11.90;99.90
7240;DHT22;3661;53.288;10.458;2022-11-04T15:39:36;11.90;99.90
7240;DHT22;3661;53.288;10.458;2022-11-04T15:42:15;11.90;99.90
7240;DHT22;3661;53.288;10.458;2022-11-04T15:45:29;11.80;99.90
7240;DHT22;3661;53.288;10.458;2022-11-04T15:48:35;11.80;99.90
7240;DHT22;3661;53.288;10.458;2022-11-04T15:51:13;11.80;99.90
7240;DHT22;3661;53.288;10.458;2022-11-04T15:53:50;11.80;99.90
7240;DHT22;3661;53.288;10.458;2022-11-04T15:56:25;11.70;99.90
7240;DHT22;3661;53.288;10.458;2022-11-04T15:58:59;11.70;99.90
7240;DHT22;3661;53.288;10.458;2022-11-04T16:01:32;11.70;99.90
7240;DHT22;3661;53.288;10.458;2022-11-04T16:04:05;11.60;99.90
7240;DHT22;3661;53.288;10.458;2022-11-04T16:06:38;11.60;99.90
7240;DHT22;3661;53.288;10.458;2022-11-04T16:09:22;11.60;99.90
7240;DHT22;3661;53.288;10.458;2022-11-04T16:12:07;11.60;99.90
7240;DHT22;3661;53.288;10.458;2022-11-04T16:14:50;11.50;99.90
7240;DHT22;3661;53.288;10.458;2022-11-04T16:17:24;11.50;99.90
7240;DHT22;3661;53.288;10.458;2022-11-04T16:19:58;11.50;99.90
7240;DHT22;3661;53.288;10.458;2022-11-04T16:22:33;11.50;99.90
7240;DHT22;3661;53.288;10.458;2022-11-04T16:25:08;11.40;99.90
7240;DHT22;3661;53.288;10.458;2022-11-04T16:27:50;11.40;99.90
7240;DHT22;3661;53.288;10.458;2022-11-04T16:30:23;11.30;99.90
7240;DHT22;3661;53.288;10.458;2022-11-04T16:33:07;11.30;99.90
7240;DHT22;3661;53.288;10.458;2022-11-04T16:35:39;11.30;99.90
7240;DHT22;3661;53.288;10.458;2022-11-04T16:38:12;11.20;99.90
7240;DHT22;3661;53.288;10.458;2022-11-04T16:40:47;11.20;99.90
7240;DHT22;3661;53.288;10.458;2022-11-04T16:43:21;11.10;99.90
7240;DHT22;3661;53.288;10.458;2022-11-04T16:45:55;11.10;99.90
7240;DHT22;3661;53.288;10.458;2022-11-04T16:48:27;11.00;99.90
7240;DHT22;3661;53.288;10.458;2022-11-04T16:50:59;11.00;99.90
7240;DHT22;3661;53.288;10.458;2022-11-04T16:53:31;10.90;99.90
7240;DHT22;3661;53.288;10.458;2022-11-04T16:56:05;10.90;99.90
7240;DHT22;3661;53.288;10.458;2022-11-04T16:58:38;10.80;99.90
7240;DHT22;3661;53.288;10.458;2022-11-04T17:01:12;10.80;99.90
7240;DHT22;3661;53.288;10.458;2022-11-04T17:03:44;10.70;99.90
7240;DHT22;3661;53.288;10.458;2022-11-04T17:06:17;10.60;99.90
7240;DHT22;3661;53.288;10.458;2022-11-04T17:08:49;10.60;99.90
7240;DHT22;3661;53.288;10.458;2022-11-04T17:11:22;10.60;99.90
7240;DHT22;3661;53.288;10.458;2022-11-04T17:13:54;10.50;99.90
7240;DHT22;3661;53.288;10.458;2022-11-04T17:16:49;10.40;99.90
7240;DHT22;3661;53.288;10.458;2022-11-04T17:19:21;10.40;99.90
7240;DHT22;3661;53.288;10.458;2022-11-04T17:21:53;10.40;99.90
7240;DHT22;3661;53.288;10.458;2022-11-04T17:24:25;10.30;99.90
7240;DHT22;3661;53.288;10.458;2022-11-04T17:26:58;10.30;99.90
7240;DHT22;3661;53.288;10.458;2022-11-04T17:29:30;10.30;99.90
7240;DHT22;3661;53.288;10.458;2022-11-04T17:32:03;10.20;99.90
7240;DHT22;3661;53.288;10.458;2022-11-04T17:34:49;10.20;99.90